Time;durP1;ratioP1;P1;durP2;ratioP2;P2;SDS_P1;SDS_P2;PMS_P1;PMS_P2;Temp;Humidity;BMP_temperature;BMP_pressure;BME280_temperature;BME280_humidity;BME280_pressure;Samples;Min_cycle;Max_cycle;Signal;HPM_P1;HPM_P2
2022/12/30 00:00:50;;;;;;;5.00;1.58;;;;;;;1.21;57.00;95072.41;5001899;28;20070;-66
2022/12/30 00:03:15;;;;;;;9.68;2.70;;;;;;;1.18;56.60;95083.16;5008532;28;20070;-65
2022/12/30 00:05:41;;;;;;;8.50;1.92;;;;;;;1.60;56.08;95090.13;5005013;28;20132;-65
2022/12/30 00:08:45;;;;;;;9.07;3.10;;;;;;;1.67;55.77;95093.03;5004124;28;20076;-65
2022/12/30 00:10:55;;;;;;;7.00;3.13;;;;;;;1.63;55.55;95095.06;4996238;28;20111;-65
2022/12/30 00:35:14;;;;;;;12.45;2.40;;;;;;;1.92;54.67;95107.44;4990452;28;20681;-65
2022/12/30 00:37:40;;;;;;;8.63;2.47;;;;;;;2.02;53.91;95104.81;4995329;28;20182;-65
2022/12/30 00:40:06;;;;;;;10.15;3.15;;;;;;;2.10;54.32;95107.56;4999880;28;20090;-65
2022/12/30 00:45:15;;;;;;;11.27;4.03;;;;;;;1.82;53.92;95110.03;4995895;28;20124;-65
2022/12/30 00:47:40;;;;;;;7.65;3.22;;;;;;;2.06;53.30;95115.84;4998745;28;20080;-65
2022/12/30 00:58:18;;;;;;;9.25;4.03;;;;;;;1.98;55.44;95125.25;5003122;28;20118;-65
2022/12/30 01:00:43;;;;;;;10.90;2.78;;;;;;;2.03;54.91;95122.22;5000731;28;20082;-65
2022/12/30 01:03:08;;;;;;;8.98;3.80;;;;;;;2.25;54.64;95125.56;5003542;28;20389;-65
2022/12/30 01:05:37;;;;;;;20.00;3.35;;;;;;;2.08;54.21;95129.69;5003280;28;20326;-65
2022/12/30 01:08:03;;;;;;;11.00;4.30;;;;;;;2.23;54.97;95127.50;5001340;28;20080;-65
2022/12/30 01:10:28;;;;;;;13.57;5.93;;;;;;;2.38;57.67;95128.72;5002010;28;20130;-65
2022/12/30 01:12:53;;;;;;;10.88;2.67;;;;;;;2.35;54.26;95134.25;5000049;28;20085;-65
2022/12/30 01:15:19;;;;;;;11.68;4.90;;;;;;;2.46;54.65;95132.47;5005411;28;20575;-65
2022/12/30 01:17:44;;;;;;;11.27;2.65;;;;;;;2.40;53.38;95136.47;5003448;28;20153;-66
2022/12/30 01:20:10;;;;;;;11.30;2.85;;;;;;;2.24;53.87;95134.41;5000063;28;20077;-65
2022/12/30 01:22:35;;;;;;;9.63;2.75;;;;;;;2.20;54.22;95144.34;5000208;28;20120;-66
2022/12/30 01:25:01;;;;;;;11.88;5.53;;;;;;;2.31;54.82;95146.00;5001892;28;20113;-65
2022/12/30 01:27:27;;;;;;;11.02;3.30;;;;;;;2.35;53.87;95139.50;5005496;28;20083;-65
2022/12/30 01:29:52;;;;;;;9.77;3.92;;;;;;;1.98;55.37;95145.44;5004180;28;20102;-65
2022/12/30 01:32:20;;;;;;;13.55;4.78;;;;;;;1.83;55.63;95150.22;5003662;28;20082;-65
2022/12/30 01:34:45;;;;;;;11.23;4.07;;;;;;;1.94;54.90;95154.56;5004984;28;20476;-65
2022/12/30 01:37:11;;;;;;;7.30;2.97;;;;;;;1.94;54.34;95157.19;5007112;28;20239;-65
2022/12/30 01:39:36;;;;;;;9.48;4.03;;;;;;;2.12;55.17;95152.09;5003426;28;20064;-65
2022/12/30 01:42:02;;;;;;;13.15;2.95;;;;;;;2.03;53.97;95148.47;5001279;28;20123;-65
2022/12/30 01:44:49;;;;;;;11.48;5.03;;;;;;;2.00;55.44;95167.13;5008234;28;20777;-65
2022/12/30 01:47:34;;;;;;;11.30;4.00;;;;;;;1.96;55.84;95163.13;5004169;28;20689;-65
2022/12/30 01:50:12;;;;;;;10.15;3.05;;;;;;;2.06;55.03;95158.72;5004956;28;20586;-65
2022/12/30 01:52:39;;;;;;;11.50;4.13;;;;;;;2.19;57.47;95166.34;5001753;28;20126;-65
2022/12/30 01:55:07;;;;;;;12.85;3.85;;;;;;;2.18;56.04;95163.84;4986604;28;20101;-65
2022/12/30 01:57:32;;;;;;;12.33;6.07;;;;;;;2.30;58.93;95164.53;5002278;28;20112;-65
2022/12/30 01:59:58;;;;;;;14.43;6.28;;;;;;;2.35;59.50;95168.41;5006656;28;20544;-65
2022/12/30 02:02:24;;;;;;;11.55;6.47;;;;;;;2.38;58.81;95162.88;4988317;28;20102;-65
2022/12/30 02:04:49;;;;;;;13.27;6.30;;;;;;;2.38;59.66;95170.78;5007357;28;20076;-65
2022/12/30 02:07:34;;;;;;;13.82;6.75;;;;;;;2.39;59.86;95169.78;5009466;28;20126;-65
2022/12/30 02:09:59;;;;;;;10.60;6.30;;;;;;;2.44;59.66;95171.19;5000838;28;20133;-65
2022/12/30 02:12:25;;;;;;;11.88;6.68;;;;;;;2.46;60.37;95164.00;5001302;28;20122;-65
2022/12/30 02:14:50;;;;;;;12.23;6.50;;;;;;;2.53;59.42;95165.13;5009034;28;20609;-65
2022/12/30 02:17:24;;;;;;;12.95;5.00;;;;;;;2.50;57.46;95175.91;5000272;28;20166;-65
2022/12/30 02:20:31;;;;;;;13.00;6.55;;;;;;;2.50;58.96;95174.09;5007280;28;20071;-65
2022/12/30 02:23:13;;;;;;;12.93;3.85;;;;;;;2.60;57.07;95179.38;5009321;28;20095;-65
2022/12/30 02:25:50;;;;;;;12.80;5.78;;;;;;;2.71;59.74;95178.38;5005123;28;20350;-65
2022/12/30 02:28:39;;;;;;;12.07;6.82;;;;;;;2.76;60.66;95176.16;5003525;28;20363;-65
2022/12/30 02:31:19;;;;;;;11.73;6.47;;;;;;;2.99;60.48;95189.00;5005091;28;20556;-65
2022/12/30 02:33:57;;;;;;;14.30;7.00;;;;;;;3.12;60.23;95183.44;5003854;28;20100;-65
2022/12/30 02:36:43;;;;;;;10.73;5.63;;;;;;;3.20;59.10;95187.19;5004841;28;20076;-65
2022/12/30 02:39:30;;;;;;;9.82;5.78;;;;;;;3.41;58.67;95194.88;5006807;28;20178;-65
2022/12/30 02:44:57;;;;;;;11.40;3.05;;;;;;;3.54;56.05;95195.41;5006516;28;20073;-65
2022/12/30 02:47:25;;;;;;;;;;;;;;;3.62;53.96;95192.06;5005726;28;20079;-65
2022/12/30 02:52:41;;;;;;;8.27;2.50;;;;;;;3.49;52.31;95186.28;4987139;28;20189;-65
2022/12/30 02:55:07;;;;;;;11.60;3.05;;;;;;;2.83;52.09;95175.59;5006903;28;20565;-65
2022/12/30 02:57:33;;;;;;;14.80;4.60;;;;;;;3.23;53.67;95181.63;5004061;28;20095;-65
2022/12/30 03:05:42;;;;;;;19.10;3.22;;;;;;;2.77;52.19;95183.09;5008799;28;20800;-65
2022/12/30 03:08:29;;;;;;;13.73;4.60;;;;;;;3.26;53.00;95170.81;5005589;28;20153;-66
2022/12/30 03:11:13;;;;;;;14.27;3.22;;;;;;;2.98;53.90;95173.34;5004208;28;20564;-65
2022/12/30 03:13:56;;;;;;;11.48;3.10;;;;;;;3.19;54.03;95172.38;5005425;28;20097;-65
2022/12/30 03:16:29;;;;;;;11.13;3.05;;;;;;;3.42;52.94;95171.03;5005520;28;20078;-65
2022/12/30 03:18:54;;;;;;;20.27;3.55;;;;;;;2.98;52.50;95174.19;5003213;28;20104;-65
2022/12/30 03:21:20;;;;;;;12.40;3.40;;;;;;;2.93;54.66;95179.06;5023059;28;20138;-65
2022/12/30 03:29:18;;;;;;;12.07;3.00;;;;;;;3.15;52.93;95190.22;5008856;28;20111;-65
2022/12/30 03:31:44;;;;;;;11.25;3.00;;;;;;;2.22;55.48;95194.94;5014595;28;20087;-65
2022/12/30 03:34:09;;;;;;;13.38;4.32;;;;;;;2.10;57.97;95194.25;5005021;28;20085;-66
2022/12/30 03:36:41;;;;;;;12.20;3.28;;;;;;;2.45;55.37;95189.44;5007552;28;20535;-66
2022/12/30 03:39:18;;;;;;;14.23;2.90;;;;;;;2.24;55.33;95205.31;4987567;28;20102;-65
2022/12/30 03:41:44;;;;;;;17.83;3.45;;;;;;;1.39;56.73;95206.41;5000828;28;20113;-65
2022/12/30 03:44:09;;;;;;;13.70;2.80;;;;;;;2.67;54.84;95202.44;5020521;28;20079;-65
2022/12/30 03:46:35;;;;;;;12.30;2.53;;;;;;;2.45;55.04;95205.22;4995165;28;20091;-65
2022/12/30 03:49:00;;;;;;;17.05;3.83;;;;;;;1.64;57.14;95212.22;5001993;28;20489;-65
2022/12/30 03:51:26;;;;;;;14.20;2.85;;;;;;;2.24;55.00;95203.53;4997232;28;20507;-65
2022/12/30 03:53:51;;;;;;;12.77;3.30;;;;;;;2.36;55.42;95206.03;4998754;28;20111;-65
2022/12/30 03:56:17;;;;;;;14.80;2.85;;;;;;;2.23;56.16;95216.81;5008384;28;20086;-65
2022/12/30 03:58:42;;;;;;;12.32;2.80;;;;;;;2.52;54.65;95216.03;5006611;28;20101;-65
2022/12/30 04:01:08;;;;;;;12.52;3.40;;;;;;;2.96;53.43;95204.25;4999151;28;20409;-65
2022/12/30 04:03:33;;;;;;;11.52;2.67;;;;;;;2.85;54.02;95192.06;4996703;28;20546;-65
2022/12/30 04:05:58;;;;;;;12.10;2.95;;;;;;;3.14;52.89;95185.94;4993179;28;20096;-65
2022/12/30 04:08:24;;;;;;;12.00;2.88;;;;;;;3.33;51.89;95186.88;4996145;28;20076;-65
2022/12/30 04:10:49;;;;;;;11.52;3.10;;;;;;;3.14;52.45;95199.91;4998087;28;20555;-65
2022/12/30 04:13:15;;;;;;;15.48;3.00;;;;;;;2.65;53.58;95194.69;4993516;28;20102;-66
2022/12/30 04:15:41;;;;;;;10.65;2.97;;;;;;;2.99;53.34;95203.97;5004042;28;20226;-65
2022/12/30 04:18:06;;;;;;;12.38;2.95;;;;;;;3.23;52.42;95202.69;5000239;28;20110;-65
2022/12/30 04:20:31;;;;;;;8.00;3.03;;;;;;;3.10;53.77;95197.72;5002351;28;20148;-65
2022/12/30 04:22:57;;;;;;;8.40;3.00;;;;;;;3.01;53.41;95204.66;4997146;28;20104;-65
2022/12/30 04:25:26;;;;;;;12.20;3.38;;;;;;;2.41;54.00;95198.56;4997736;28;20575;-66
2022/12/30 04:27:52;;;;;;;;;;;;;;;2.47;55.43;95192.78;4997194;28;20089;-66
2022/12/30 04:30:17;;;;;;;13.00;3.10;;;;;;;1.90;57.29;95192.56;4999892;28;20003;-66
2022/12/30 04:32:43;;;;;;;10.18;3.08;;;;;;;2.88;55.02;95182.09;5001828;28;20132;-65
2022/12/30 04:35:08;;;;;;;14.13;2.95;;;;;;;1.46;58.02;95193.59;5003985;28;20111;-65
2022/12/30 04:37:33;;;;;;;8.68;3.03;;;;;;;2.78;54.41;95189.16;5000823;28;20145;-65
2022/12/30 04:39:59;;;;;;;9.77;3.22;;;;;;;1.78;58.67;95187.41;5005241;28;20075;-65
2022/12/30 04:42:24;;;;;;;12.10;3.00;;;;;;;1.73;58.07;95194.81;5004060;28;20138;-66
2022/12/30 04:44:50;;;;;;;14.23;3.30;;;;;;;1.49;58.13;95190.69;5002829;28;20140;-66
2022/12/30 04:47:15;;;;;;;13.93;3.22;;;;;;;2.38;56.14;95178.66;5003251;28;20709;-66
2022/12/30 04:49:40;;;;;;;13.23;3.22;;;;;;;1.33;57.89;95189.38;4999572;28;20104;-65
2022/12/30 04:52:06;;;;;;;12.75;3.58;;;;;;;-1.29;69.06;95215.13;5000631;28;20110;-65
2022/12/30 04:54:32;;;;;;;14.57;3.17;;;;;;;1.16;60.76;95205.75;5008123;28;20106;-65
2022/12/30 04:56:58;;;;;;;14.10;3.10;;;;;;;2.12;57.04;95205.44;5002432;28;20726;-65
2022/12/30 04:59:23;;;;;;;11.90;3.08;;;;;;;1.23;58.60;95209.50;5002172;28;20228;-65
2022/12/30 05:01:48;;;;;;;11.32;2.80;;;;;;;1.65;59.36;95215.66;4997792;28;20117;-65
2022/12/30 05:04:14;;;;;;;12.80;2.95;;;;;;;0.59;61.06;95220.78;5002704;28;20084;-65
2022/12/30 05:06:39;;;;;;;17.42;3.40;;;;;;;1.55;58.06;95220.88;4998573;28;20100;-65
2022/12/30 05:09:05;;;;;;;10.57;3.30;;;;;;;2.77;56.64;95205.91;4997709;28;20111;-65
2022/12/30 05:11:30;;;;;;;12.05;3.05;;;;;;;1.70;56.80;95203.00;4995470;28;20107;-65
2022/12/30 05:13:55;;;;;;;12.65;3.28;;;;;;;2.19;57.27;95202.28;4994342;28;20096;-65
2022/12/30 05:16:21;;;;;;;10.98;2.67;;;;;;;2.35;56.64;95199.94;4994865;28;20110;-65
2022/12/30 05:18:46;;;;;;;15.95;3.00;;;;;;;2.61;55.79;95188.06;4997951;28;20109;-65
2022/12/30 05:21:12;;;;;;;9.50;3.15;;;;;;;2.69;55.04;95190.00;5003594;28;20134;-65
2022/12/30 05:26:21;;;;;;;9.70;2.60;;;;;;;3.10;53.60;95206.41;5001478;28;20535;-65
2022/12/30 05:28:47;;;;;;;13.00;2.88;;;;;;;2.81;54.33;95202.03;5006079;28;20080;-66
2022/12/30 05:31:13;;;;;;;9.75;2.75;;;;;;;3.07;54.50;95203.25;5004226;28;20086;-65
2022/12/30 05:33:38;;;;;;;12.50;2.58;;;;;;;2.89;54.33;95211.84;4999892;28;20103;-65
2022/12/30 05:36:04;;;;;;;8.05;2.60;;;;;;;1.85;57.91;95219.19;5006558;28;20326;-65
2022/12/30 05:38:30;;;;;;;11.50;2.72;;;;;;;1.49;58.97;95220.41;5001341;28;20105;-65
2022/12/30 05:40:55;;;;;;;9.48;2.53;;;;;;;1.37;59.10;95222.25;5003645;28;20129;-65
2022/12/30 05:43:20;;;;;;;8.38;2.67;;;;;;;2.26;57.43;95214.75;5002326;28;20120;-65
2022/12/30 05:45:46;;;;;;;15.02;3.22;;;;;;;1.76;57.97;95228.69;5003069;28;20294;-65
2022/12/30 05:48:11;;;;;;;10.93;2.60;;;;;;;2.70;55.75;95231.09;5004893;28;20081;-65
2022/12/30 05:50:37;;;;;;;8.95;2.70;;;;;;;2.84;56.70;95224.59;5000608;28;20113;-66
2022/12/30 05:53:02;;;;;;;13.85;2.92;;;;;;;1.41;59.51;95240.38;5000294;28;20152;-65
2022/12/30 05:55:27;;;;;;;11.95;2.90;;;;;;;1.05;60.94;95233.69;5003542;28;20739;-65
2022/12/30 05:57:53;;;;;;;10.82;2.85;;;;;;;2.14;57.04;95231.56;5001598;28;20164;-65
2022/12/30 06:00:18;;;;;;;9.02;2.65;;;;;;;2.43;56.58;95229.97;4999735;28;20130;-65
2022/12/30 06:02:44;;;;;;;10.10;2.80;;;;;;;2.61;55.92;95236.22;4998412;28;20153;-65
2022/12/30 06:05:09;;;;;;;10.80;2.40;;;;;;;2.06;57.59;95239.28;4999899;28;20106;-65
2022/12/30 06:07:35;;;;;;;7.65;2.47;;;;;;;2.64;56.11;95228.06;4999919;28;20076;-66
2022/12/30 06:10:00;;;;;;;7.72;2.47;;;;;;;3.01;54.54;95215.16;5000889;28;20118;-65
2022/12/30 06:12:25;;;;;;;11.98;2.60;;;;;;;2.67;55.19;95215.59;5004853;28;20769;-66
2022/12/30 06:14:51;;;;;;;9.43;2.40;;;;;;;2.49;56.67;95219.72;5006926;28;20149;-65
2022/12/30 06:17:16;;;;;;;13.02;3.13;;;;;;;2.76;56.38;95226.09;5006423;28;20110;-65
2022/12/30 06:19:42;;;;;;;12.23;2.53;;;;;;;3.09;54.46;95217.13;5007408;28;20106;-65
2022/12/30 06:22:07;;;;;;;10.00;2.90;;;;;;;3.36;55.20;95213.72;5004442;28;20325;-65
2022/12/30 06:24:33;;;;;;;13.80;2.90;;;;;;;3.15;54.39;95222.63;5005933;28;20086;-65
2022/12/30 06:26:58;;;;;;;7.63;2.42;;;;;;;3.57;54.07;95209.25;5006969;28;20587;-66
2022/12/30 06:29:23;;;;;;;7.35;2.45;;;;;;;3.59;53.82;95217.81;5003751;28;20123;-66
2022/12/30 06:31:49;;;;;;;11.43;2.40;;;;;;;2.93;54.18;95222.94;5007087;28;20156;-66
2022/12/30 06:34:14;;;;;;;13.95;2.90;;;;;;;2.10;56.43;95222.28;5003479;28;20094;-66
2022/12/30 06:36:39;;;;;;;9.10;2.75;;;;;;;3.11;55.48;95215.16;5004739;28;20098;-66
2022/12/30 06:39:05;;;;;;;8.63;2.45;;;;;;;2.88;56.17;95229.44;5005021;28;20096;-65
2022/12/30 06:41:30;;;;;;;9.27;2.17;;;;;;;3.71;54.41;95213.22;5003224;28;20085;-66
2022/12/30 06:43:56;;;;;;;10.55;2.78;;;;;;;4.00;52.34;95207.81;5009616;28;20539;-65
2022/12/30 06:46:21;;;;;;;12.23;3.03;;;;;;;3.98;52.51;95199.22;5004441;28;20184;-66
2022/12/30 06:48:46;;;;;;;13.27;2.72;;;;;;;2.81;54.22;95203.81;5008688;28;20080;-65
2022/12/30 06:51:12;;;;;;;7.35;2.50;;;;;;;3.50;54.73;95193.22;5003391;28;20109;-66
2022/12/30 06:53:37;;;;;;;8.70;2.63;;;;;;;2.51;56.43;95188.06;5010659;28;20103;-65
2022/12/30 06:56:03;;;;;;;8.82;2.45;;;;;;;3.11;54.28;95189.69;5010349;28;20081;-65
2022/12/30 06:58:28;;;;;;;10.93;2.88;;;;;;;3.28;54.18;95190.75;5007310;28;20104;-65
2022/12/30 07:00:54;;;;;;;12.75;2.92;;;;;;;1.92;59.06;95182.72;5008110;28;20080;-65
2022/12/30 07:03:19;;;;;;;11.25;2.80;;;;;;;2.83;55.69;95181.72;5006347;28;20182;-65
2022/12/30 07:05:45;;;;;;;11.82;2.75;;;;;;;2.98;55.71;95171.56;5009965;28;20154;-66
2022/12/30 07:08:10;;;;;;;10.13;2.47;;;;;;;3.35;54.43;95169.13;5007659;28;20075;-65
2022/12/30 07:10:35;;;;;;;13.07;2.72;;;;;;;2.95;54.07;95173.63;5007049;28;20141;-65
2022/12/30 07:13:01;;;;;;;13.00;2.70;;;;;;;0.61;62.18;95175.31;5007034;28;20111;-65
2022/12/30 07:15:26;;;;;;;7.93;2.50;;;;;;;1.98;58.46;95174.31;5013599;28;20523;-65
2022/12/30 07:17:52;;;;;;;9.00;2.90;;;;;;;2.50;56.38;95166.22;5008964;28;20110;-65
2022/12/30 07:20:17;;;;;;;10.93;2.97;;;;;;;2.41;55.62;95176.72;5009182;28;20104;-65
2022/12/30 07:22:43;;;;;;;5.70;2.38;;;;;;;2.69;56.17;95171.59;5011562;28;20568;-65
2022/12/30 07:25:08;;;;;;;8.88;2.70;;;;;;;2.61;54.19;95177.53;5004613;28;20100;-65
2022/12/30 07:27:34;;;;;;;9.50;2.28;;;;;;;3.04;54.47;95178.06;5007702;28;20470;-65
2022/12/30 07:29:59;;;;;;;8.95;2.30;;;;;;;3.40;53.87;95178.25;5007556;28;20108;-65
2022/12/30 07:32:24;;;;;;;8.73;2.20;;;;;;;3.45;52.87;95177.84;5004542;28;20082;-65
2022/12/30 07:34:50;;;;;;;9.20;2.13;;;;;;;3.00;54.02;95190.66;5004483;28;20156;-65
2022/12/30 07:37:15;;;;;;;7.43;2.20;;;;;;;3.13;54.13;95181.66;5007795;28;20263;-65
2022/12/30 07:39:41;;;;;;;9.93;2.28;;;;;;;3.38;52.98;95180.22;5006473;28;20131;-65
2022/12/30 07:42:06;;;;;;;11.93;2.60;;;;;;;3.14;53.37;95178.84;5000190;28;20117;-65
2022/12/30 07:44:32;;;;;;;11.95;2.80;;;;;;;2.47;55.55;95176.16;4996963;28;20089;-65
2022/12/30 07:46:57;;;;;;;9.65;2.28;;;;;;;3.16;53.68;95176.09;5005878;28;20101;-65
2022/12/30 07:49:22;;;;;;;8.80;2.15;;;;;;;3.68;52.70;95166.97;5004037;28;20118;-66
2022/12/30 07:51:48;;;;;;;11.40;2.55;;;;;;;3.73;51.79;95179.66;5003801;28;20100;-66
2022/12/30 07:54:13;;;;;;;12.07;2.75;;;;;;;1.48;57.33;95196.91;5004960;28;20093;-66
2022/12/30 07:56:39;;;;;;;8.38;2.42;;;;;;;2.70;56.13;95186.41;4998937;28;20523;-65
2022/12/30 07:59:04;;;;;;;12.05;2.78;;;;;;;2.09;57.28;95189.97;5012634;28;20144;-65
2022/12/30 08:01:29;;;;;;;9.20;2.58;;;;;;;3.29;53.58;95181.88;5007816;28;20416;-65
2022/12/30 08:03:55;;;;;;;15.13;3.00;;;;;;;2.37;56.71;95181.41;5013218;28;20090;-66
2022/12/30 08:06:20;;;;;;;11.77;3.00;;;;;;;2.47;55.77;95170.91;5008874;28;20429;-66
2022/12/30 08:08:46;;;;;;;8.20;2.53;;;;;;;1.67;58.45;95177.81;5008098;28;20318;-66
2022/12/30 08:11:12;;;;;;;16.58;3.05;;;;;;;0.18;62.74;95190.94;5004650;28;20097;-66
2022/12/30 08:13:40;;;;;;;10.25;2.38;;;;;;;2.09;57.55;95170.75;5005808;28;20559;-65
2022/12/30 08:16:07;;;;;;;12.35;3.72;;;;;;;2.79;56.67;95167.16;5004974;28;20474;-66
2022/12/30 08:18:32;;;;;;;9.80;2.78;;;;;;;1.62;58.92;95169.53;5007951;28;20454;-65
2022/12/30 08:21:19;;;;;;;10.43;2.80;;;;;;;0.31;62.94;95180.31;5010717;28;20084;-65
2022/12/30 08:23:46;;;;;;;10.45;3.40;;;;;;;1.66;58.86;95168.28;4997323;28;20460;-65
2022/12/30 08:26:14;;;;;;;10.73;2.88;;;;;;;2.08;58.46;95154.16;5010733;28;20097;-66
2022/12/30 08:28:39;;;;;;;7.32;3.35;;;;;;;2.17;58.44;95167.44;5002645;28;20110;-65
2022/12/30 08:31:10;;;;;;;11.10;3.20;;;;;;;2.78;55.38;95168.13;5013329;28;20090;-65
2022/12/30 08:33:35;;;;;;;11.07;3.20;;;;;;;3.42;54.36;95162.31;5018341;28;20096;-66
2022/12/30 08:36:02;;;;;;;11.18;2.92;;;;;;;3.75;53.36;95162.78;5013352;28;20104;-66
2022/12/30 08:38:27;;;;;;;12.43;4.40;;;;;;;2.53;57.41;95158.03;5002340;28;20091;-65
2022/12/30 08:40:53;;;;;;;12.82;6.38;;;;;;;2.23;59.07;95162.47;5008214;28;20073;-65
2022/12/30 08:43:20;;;;;;;13.00;4.72;;;;;;;3.00;56.71;95161.72;5000194;28;20118;-66
2022/12/30 08:45:54;;;;;;;12.27;4.35;;;;;;;3.27;55.66;95149.59;5012338;28;20092;-66
2022/12/30 08:48:20;;;;;;;13.30;4.95;;;;;;;3.65;54.24;95139.13;5011598;28;20754;-75
2022/12/30 08:50:45;;;;;;;10.82;3.72;;;;;;;3.98;52.82;95137.81;5007729;28;20096;-75
2022/12/30 08:53:11;;;;;;;13.18;4.90;;;;;;;4.39;52.72;95119.75;5005843;28;20088;-68
2022/12/30 08:55:36;;;;;;;18.25;10.30;;;;;;;4.28;53.02;95133.16;5002754;28;20532;-68
2022/12/30 08:58:01;;;;;;;5.43;2.75;;;;;;;4.04;53.02;95124.88;5004817;28;20102;-68
2022/12/30 09:00:27;;;;;;;18.00;8.82;;;;;;;4.19;52.68;95133.09;5006641;28;20118;-68
2022/12/30 09:02:52;;;;;;;14.98;3.95;;;;;;;4.36;52.93;95121.88;5014338;28;20548;-69
2022/12/30 09:05:18;;;;;;;10.95;5.38;;;;;;;4.59;52.96;95119.59;5005825;28;20340;-69
2022/12/30 09:07:43;;;;;;;9.70;4.53;;;;;;;4.73;50.52;95128.75;5009596;28;20069;-68
2022/12/30 09:10:11;;;;;;;19.73;10.13;;;;;;;4.24;52.90;95121.28;5004741;28;20544;-68
2022/12/30 09:12:37;;;;;;;19.43;9.73;;;;;;;4.16;53.01;95114.13;5002473;28;20409;-69
2022/12/30 09:15:02;;;;;;;14.43;7.03;;;;;;;4.22;52.51;95107.44;4999683;28;20096;-69
2022/12/30 09:17:28;;;;;;;9.15;2.80;;;;;;;4.27;52.06;95100.72;5003806;28;20211;-68
2022/12/30 09:19:53;;;;;;;10.80;3.00;;;;;;;3.62;53.44;95092.03;5002345;28;20068;-68
2022/12/30 09:22:19;;;;;;;15.23;6.60;;;;;;;4.42;51.52;95089.66;5007632;28;20574;-68
2022/12/30 09:24:44;;;;;;;13.80;5.80;;;;;;;4.51;51.79;95080.00;5004734;28;20067;-68
2022/12/30 09:27:09;;;;;;;18.33;11.40;;;;;;;3.98;53.70;95069.34;5005630;28;20074;-68
2022/12/30 09:29:35;;;;;;;9.98;2.72;;;;;;;3.80;52.91;95075.41;5007327;28;20103;-69
2022/12/30 09:32:00;;;;;;;14.40;6.07;;;;;;;4.60;51.69;95071.19;5001524;28;20100;-69
2022/12/30 09:34:26;;;;;;;9.60;4.35;;;;;;;4.87;50.37;95065.91;5003639;28;20081;-69
2022/12/30 09:36:51;;;;;;;14.52;3.60;;;;;;;4.21;51.78;95074.16;5005493;28;20092;-69
2022/12/30 09:39:16;;;;;;;21.52;11.20;;;;;;;4.73;51.08;95064.66;5010917;28;20079;-69
2022/12/30 09:44:41;;;;;;;12.38;4.85;;;;;;;5.07;50.80;95053.34;5003289;28;20575;-69
2022/12/30 09:47:28;;;;;;;11.30;3.10;;;;;;;4.23;51.42;95061.66;5003961;28;20094;-69
2022/12/30 09:50:19;;;;;;;11.77;4.38;;;;;;;3.56;54.01;95063.63;5004350;28;20467;-69
2022/12/30 09:52:56;;;;;;;17.23;7.85;;;;;;;4.28;51.28;95064.66;5017326;28;20076;-69
2022/12/30 09:55:25;;;;;;;10.10;3.72;;;;;;;3.60;54.13;95048.41;5013519;28;20501;-69
2022/12/30 09:57:52;;;;;;;11.38;5.80;;;;;;;4.75;52.08;95049.50;5002592;28;20577;-69
2022/12/30 10:00:19;;;;;;;12.50;6.30;;;;;;;4.54;50.37;95040.13;5003365;28;20070;-69
2022/12/30 10:03:07;;;;;;;14.68;6.03;;;;;;;5.42;49.16;95027.78;5003903;28;20086;-69
2022/12/30 10:05:35;;;;;;;9.13;3.57;;;;;;;4.86;48.82;95027.31;5006005;28;20466;-69
2022/12/30 10:08:14;;;;;;;24.20;14.95;;;;;;;5.27;49.52;95008.25;5005965;28;20077;-69
2022/12/30 10:10:43;;;;;;;33.60;21.50;;;;;;;6.02;48.30;95017.13;5008361;28;20165;-69
2022/12/30 10:13:18;;;;;;;24.20;12.50;;;;;;;6.11;47.38;95007.41;5001854;28;20111;-69
2022/12/30 10:15:51;;;;;;;20.52;9.23;;;;;;;5.78;47.54;95010.03;5005726;28;20051;-69
2022/12/30 10:18:42;;;;;;;30.25;16.58;;;;;;;5.84;48.10;95004.06;5009628;28;20451;-69
2022/12/30 10:21:14;;;;;;;9.98;3.47;;;;;;;4.20;50.47;94989.00;5002500;28;20573;-69
2022/12/30 10:24:15;;;;;;;9.65;3.67;;;;;;;4.12;53.07;94975.78;5005529;28;20080;-69
2022/12/30 10:26:42;;;;;;;26.08;14.20;;;;;;;5.33;50.03;94989.13;5001960;28;20106;-69
2022/12/30 10:29:36;;;;;;;4.13;2.28;;;;;;;5.07;49.12;94982.13;5001997;28;20089;-69
2022/12/30 10:32:19;;;;;;;15.65;8.70;;;;;;;5.31;48.93;94973.44;5007543;28;20094;-69
2022/12/30 10:34:46;;;;;;;10.80;5.03;;;;;;;5.40;48.68;94974.28;4997969;28;20096;-69
2022/12/30 10:37:13;;;;;;;12.70;6.18;;;;;;;5.52;48.86;94968.72;5005973;28;20615;-69
2022/12/30 10:39:43;;;;;;;15.45;8.50;;;;;;;4.96;50.23;94969.97;5002752;28;20268;-69
2022/12/30 10:42:39;;;;;;;8.15;3.88;;;;;;;5.49;49.68;94954.03;5001860;28;20613;-69
2022/12/30 10:45:36;;;;;;;22.83;11.82;;;;;;;5.64;49.06;94954.19;5011164;28;20452;-69
2022/12/30 10:48:10;;;;;;;11.60;5.07;;;;;;;6.05;48.95;94932.25;5005421;28;20059;-69
2022/12/30 10:50:43;;;;;;;13.40;5.50;;;;;;;5.38;49.82;94943.75;5004089;28;20102;-69
2022/12/30 10:53:17;;;;;;;14.23;7.00;;;;;;;5.79;48.69;94940.34;5001549;28;20095;-69
2022/12/30 10:55:49;;;;;;;26.70;17.15;;;;;;;5.37;49.63;94937.66;5004448;28;20056;-69
2022/12/30 10:58:26;;;;;;;26.20;13.68;;;;;;;5.21;48.91;94939.25;5003472;28;20606;-69
2022/12/30 11:00:53;;;;;;;6.32;2.88;;;;;;;5.77;48.77;94932.59;5006656;28;20512;-69
2022/12/30 11:03:30;;;;;;;18.58;8.32;;;;;;;6.22;47.86;94937.50;5005660;28;20713;-70
2022/12/30 11:06:16;;;;;;;6.82;2.20;;;;;;;5.97;47.06;94942.81;5009274;28;20110;-70
2022/12/30 11:08:42;;;;;;;9.38;3.17;;;;;;;5.70;48.32;94932.44;5003373;28;20070;-69
2022/12/30 11:11:07;;;;;;;20.52;12.50;;;;;;;6.54;46.94;94927.91;5006153;28;20102;-70
2022/12/30 11:16:26;;;;;;;4.65;2.15;;;;;;;6.46;45.70;94912.03;5007073;28;20505;-69
2022/12/30 11:18:51;;;;;;;6.53;2.97;;;;;;;5.98;46.39;94900.38;5003192;28;20085;-69
2022/12/30 11:21:28;;;;;;;22.33;14.15;;;;;;;4.90;50.63;94899.41;5007528;28;20102;-69
2022/12/30 11:23:55;;;;;;;4.55;1.77;;;;;;;4.26;51.14;94893.53;4994255;28;20148;-69
2022/12/30 11:26:21;;;;;;;7.35;2.58;;;;;;;5.34;48.41;94888.66;5012399;28;20091;-69
2022/12/30 11:28:54;;;;;;;8.32;2.20;;;;;;;5.93;47.36;94883.38;5011543;28;20113;-69
2022/12/30 11:31:19;;;;;;;6.82;2.13;;;;;;;6.21;46.38;94888.28;5007868;28;20075;-69
2022/12/30 11:33:51;;;;;;;6.53;3.03;;;;;;;5.89;48.12;94884.72;5012588;28;20078;-69
2022/12/30 11:36:28;;;;;;;10.35;4.93;;;;;;;6.14;47.62;94877.56;5009815;28;20068;-69
2022/12/30 11:38:55;;;;;;;25.15;14.00;;;;;;;6.06;47.02;94877.59;5005100;28;20085;-69
2022/12/30 11:41:27;;;;;;;17.52;8.48;;;;;;;6.08;48.08;94860.56;5002394;28;20229;-69
2022/12/30 11:43:58;;;;;;;8.18;4.18;;;;;;;6.28;46.82;94860.19;5002137;28;20307;-69
2022/12/30 11:46:29;;;;;;;13.38;8.55;;;;;;;5.85;48.12;94871.81;5003900;28;20079;-69
2022/12/30 11:48:55;;;;;;;8.52;4.43;;;;;;;5.55;47.78;94860.94;5001854;28;20284;-69
2022/12/30 11:51:22;;;;;;;23.83;15.55;;;;;;;5.56;49.01;94859.13;5002987;28;20573;-69
2022/12/30 11:53:48;;;;;;;25.98;14.85;;;;;;;6.01;48.39;94850.84;5004756;28;20121;-69
2022/12/30 11:56:20;;;;;;;15.55;8.73;;;;;;;5.98;47.80;94841.41;5004783;28;20132;-69
2022/12/30 11:58:46;;;;;;;7.32;3.40;;;;;;;5.97;47.22;94837.13;5005716;28;20073;-69
2022/12/30 12:01:11;;;;;;;6.55;2.55;;;;;;;5.55;48.99;94839.81;5007220;28;20080;-69
2022/12/30 12:03:57;;;;;;;5.78;2.40;;;;;;;5.21;49.00;94828.41;5004473;28;20062;-69
2022/12/30 12:06:22;;;;;;;9.43;2.83;;;;;;;5.52;48.97;94818.19;5010280;28;20095;-69
2022/12/30 12:08:58;;;;;;;21.75;13.15;;;;;;;5.86;49.26;94798.69;5002049;28;20070;-69
2022/12/30 12:11:27;;;;;;;17.13;9.45;;;;;;;5.44;49.54;94817.22;5000572;28;20136;-69
2022/12/30 12:13:55;;;;;;;;;;;;;;;5.86;48.31;94788.13;5002821;28;20096;-69
2022/12/30 12:16:45;;;;;;;11.55;5.38;;;;;;;5.94;48.92;94785.47;5008542;28;19953;-69
2022/12/30 12:19:23;;;;;;;12.68;8.23;;;;;;;6.14;47.67;94771.84;4987235;28;20105;-69
2022/12/30 12:21:50;;;;;;;15.18;6.13;;;;;;;4.85;49.22;94786.47;4999800;28;20104;-68
2022/12/30 12:24:22;;;;;;;8.80;4.80;;;;;;;4.60;52.63;94767.97;4990506;28;20059;-68
2022/12/30 12:27:10;;;;;;;7.50;2.28;;;;;;;4.51;52.31;94764.47;5003949;28;20082;-68
2022/12/30 12:29:36;;;;;;;10.48;4.80;;;;;;;5.26;49.62;94734.72;5006543;28;20891;-68
2022/12/30 12:32:13;;;;;;;11.13;6.13;;;;;;;5.05;49.70;94762.41;5003960;28;20086;-68
2022/12/30 12:35:01;;;;;;;22.60;14.05;;;;;;;5.12;49.96;94737.06;5003960;28;20507;-68
2022/12/30 12:37:26;;;;;;;7.35;2.58;;;;;;;3.80;51.54;94762.06;4997939;28;20095;-68
2022/12/30 12:40:16;;;;;;;18.98;8.65;;;;;;;4.71;50.62;94736.03;5002982;28;20060;-68
2022/12/30 12:43:14;;;;;;;11.30;6.03;;;;;;;5.41;48.57;94725.13;5007741;28;20152;-68